createdAt,value
2022-11-21T00:02:28.234Z,25.53
2022-11-21T00:10:49.710Z,35.43
2022-11-21T00:14:58.292Z,32.13
2022-11-21T00:19:06.867Z,32.70
2022-11-21T00:23:15.441Z,34.33
2022-11-21T00:27:24.014Z,38.07
2022-11-21T00:31:32.803Z,30.20
2022-11-21T00:35:43.111Z,29.30
2022-11-21T00:39:51.702Z,25.40
2022-11-21T00:44:00.318Z,35.27
2022-11-21T00:48:28.233Z,37.60
2022-11-21T00:52:37.860Z,30.80
2022-11-21T00:56:46.380Z,24.70
2022-11-21T01:01:10.128Z,26.27
2022-11-21T01:05:18.801Z,28.33
2022-11-21T01:09:28.682Z,29.87
2022-11-21T01:13:37.891Z,26.97
2022-11-21T01:17:46.467Z,26.57
2022-11-21T01:21:55.004Z,26.60
2022-11-21T01:26:08.173Z,34.33
2022-11-21T01:30:17.372Z,28.50
2022-11-21T01:34:26.126Z,25.63
2022-11-21T01:38:35.306Z,28.93
2022-11-21T01:43:05.128Z,25.90
2022-11-21T01:47:32.949Z,28.17
2022-11-21T01:52:05.523Z,29.53
2022-11-21T01:56:15.150Z,28.07
2022-11-21T02:00:26.700Z,26.83
2022-11-21T02:04:55.160Z,35.30
2022-11-21T02:09:05.613Z,23.77
2022-11-21T02:13:14.228Z,25.50
2022-11-21T02:17:22.936Z,33.23
2022-11-21T02:21:34.673Z,34.00
2022-11-21T02:25:44.640Z,29.70
2022-11-21T02:29:53.363Z,30.80
2022-11-21T02:34:01.889Z,27.53
2022-11-21T02:38:22.019Z,29.50
2022-11-21T02:42:39.342Z,33.77
2022-11-21T02:46:50.292Z,37.57
2022-11-21T02:50:58.849Z,31.77
2022-11-21T02:55:08.578Z,34.40
2022-11-21T02:59:17.214Z,35.17
2022-11-21T03:03:25.703Z,31.57
2022-11-21T03:07:34.405Z,36.70
2022-11-21T03:11:42.997Z,35.40
2022-11-21T03:15:52.024Z,30.10
2022-11-21T03:20:00.633Z,27.73
2022-11-21T03:24:09.497Z,31.73
2022-11-21T03:28:18.125Z,30.10
2022-11-21T03:32:26.834Z,22.23
2022-11-21T03:36:35.421Z,19.87
2022-11-21T03:40:44.030Z,25.90
2022-11-21T03:44:52.640Z,23.40
2022-11-21T03:49:01.516Z,25.50
2022-11-21T03:53:10.101Z,23.93
2022-11-21T03:57:18.731Z,23.30
2022-11-21T04:01:30.255Z,26.27
2022-11-21T04:05:37.766Z,26.07
2022-11-21T04:09:46.357Z,23.00
2022-11-21T04:13:54.985Z,16.77
2022-11-21T04:18:03.561Z,24.90
2022-11-21T04:22:12.243Z,19.70
2022-11-21T04:26:20.873Z,23.70
2022-11-21T04:30:30.329Z,18.70
2022-11-21T04:34:58.305Z,21.83
2022-11-21T04:39:08.725Z,22.83
2022-11-21T04:43:17.015Z,24.03
2022-11-21T04:47:25.623Z,19.77
2022-11-21T04:51:34.250Z,25.80
2022-11-21T04:55:42.881Z,22.60
2022-11-21T04:59:51.512Z,29.53
2022-11-21T05:04:12.455Z,29.67
2022-11-21T05:08:21.053Z,23.03
2022-11-21T05:12:47.909Z,25.77
2022-11-21T05:16:56.539Z,24.80
2022-11-21T05:21:05.478Z,27.00
2022-11-21T05:25:14.102Z,22.20
2022-11-21T05:29:27.937Z,20.40
2022-11-21T05:33:33.188Z,29.47
2022-11-21T05:37:41.832Z,20.23
2022-11-21T05:41:50.460Z,27.60
2022-11-21T05:46:11.329Z,21.93
2022-11-21T05:50:20.006Z,29.63
2022-11-21T05:54:28.810Z,18.60
2022-11-21T05:58:57.641Z,17.93
2022-11-21T06:03:28.727Z,27.73
2022-11-21T06:07:37.604Z,24.53
2022-11-21T06:11:46.260Z,40.47
2022-11-21T06:15:57.894Z,25.90
2022-11-21T06:20:07.348Z,28.70
2022-11-21T06:24:28.885Z,28.70
2022-11-21T06:28:39.690Z,31.93
2022-11-21T06:32:48.304Z,26.27
2022-11-21T06:36:56.875Z,39.67
2022-11-21T06:41:07.712Z,22.77
2022-11-21T06:45:16.602Z,28.07
2022-11-21T06:49:25.422Z,24.70
2022-11-21T06:53:36.098Z,22.30
2022-11-21T06:58:04.081Z,32.80
2022-11-21T07:02:14.226Z,34.03
2022-11-21T07:06:23.781Z,40.23
2022-11-21T07:10:32.774Z,24.00
2022-11-21T07:14:41.379Z,34.70
2022-11-21T07:18:50.196Z,19.97
2022-11-21T07:23:18.032Z,31.50
2022-11-21T07:27:26.623Z,35.23
2022-11-21T07:31:35.232Z,26.13
2022-11-21T07:35:45.407Z,29.33
2022-11-21T07:39:54.377Z,26.07
2022-11-21T07:44:03.165Z,21.70
2022-11-21T07:48:12.943Z,21.73
2022-11-21T07:52:21.547Z,40.33
2022-11-21T07:56:30.099Z,27.27
2022-11-21T08:00:40.779Z,33.67
2022-11-21T08:04:50.198Z,24.73
2022-11-21T08:08:58.697Z,32.10
2022-11-21T08:13:07.547Z,34.00
2022-11-21T08:17:17.795Z,47.10
2022-11-21T08:21:27.098Z,39.78
2022-11-21T08:25:38.153Z,34.27
2022-11-21T08:29:47.462Z,40.87
2022-11-21T08:33:59.110Z,36.07
2022-11-21T08:38:08.961Z,31.83
2022-11-21T08:42:17.487Z,34.53
2022-11-21T08:46:30.782Z,45.13
2022-11-21T08:50:39.664Z,34.53
2022-11-21T08:54:48.386Z,41.43
2022-11-21T08:59:07.581Z,42.67
2022-11-21T09:03:21.751Z,40.83
2022-11-21T09:07:26.509Z,37.37
2022-11-21T09:11:36.749Z,45.00
2022-11-21T09:16:03.477Z,49.27
2022-11-21T09:20:12.356Z,38.60
2022-11-21T09:24:21.134Z,41.60
2022-11-21T09:28:30.274Z,34.77
2022-11-21T09:32:40.345Z,26.33
2022-11-21T09:36:48.892Z,43.03
2022-11-21T09:41:36.515Z,33.47
2022-11-21T09:46:06.146Z,38.20
2022-11-21T09:50:35.538Z,28.07
2022-11-21T09:54:51.656Z,24.93
2022-11-21T09:59:24.039Z,38.13
2022-11-21T10:03:36.037Z,28.93
2022-11-21T10:07:45.548Z,28.37
2022-11-21T10:12:34.590Z,19.80
2022-11-21T10:17:07.995Z,15.77
2022-11-21T10:21:22.624Z,25.00
2022-11-21T10:25:42.232Z,19.10
2022-11-21T10:30:08.994Z,21.23
2022-11-21T10:34:20.693Z,17.70
2022-11-21T10:38:30.013Z,19.50
2022-11-21T10:42:43.298Z,24.37
2022-11-21T10:47:02.554Z,14.60
2022-11-21T10:51:20.080Z,15.47
2022-11-21T10:55:28.639Z,14.13
2022-11-21T10:59:37.257Z,13.83
2022-11-21T11:04:06.925Z,19.97
2022-11-21T11:08:14.173Z,14.33
2022-11-21T11:12:25.768Z,9.93
2022-11-21T11:16:41.543Z,11.63
2022-11-21T11:20:47.937Z,9.70
2022-11-21T11:25:00.413Z,8.47
2022-11-21T11:29:12.873Z,6.60
2022-11-21T11:33:39.524Z,9.13
2022-11-21T11:37:54.080Z,10.50
2022-11-21T11:42:53.923Z,8.53
2022-11-21T11:47:26.206Z,9.57
2022-11-21T11:51:38.129Z,12.57
2022-11-21T11:55:50.026Z,6.83
2022-11-21T12:00:26.614Z,6.80
2022-11-21T12:04:38.329Z,16.63
2022-11-21T12:09:02.323Z,6.60
2022-11-21T12:13:14.014Z,8.80
2022-11-21T12:17:47.065Z,12.97
2022-11-21T12:21:57.209Z,8.20
2022-11-21T12:26:31.596Z,8.37
2022-11-21T12:31:01.065Z,8.03
2022-11-21T12:35:31.007Z,6.30
2022-11-21T12:40:00.761Z,18.40
2022-11-21T12:44:30.490Z,10.80
2022-11-21T12:53:47.447Z,6.00
2022-11-21T12:57:59.154Z,5.20
2022-11-21T13:02:22.553Z,7.00
2022-11-21T13:06:34.204Z,5.17
2022-11-21T13:10:45.886Z,7.20
2022-11-21T13:15:13.973Z,8.20
2022-11-21T13:19:26.115Z,3.97
2022-11-21T13:23:42.833Z,4.00
2022-11-21T13:27:51.467Z,4.10
2022-11-21T13:31:59.997Z,4.63
2022-11-21T13:36:32.481Z,3.70
2022-11-21T13:40:46.468Z,3.80
2022-11-21T13:44:55.693Z,13.43
2022-11-21T13:49:07.304Z,5.30
2022-11-21T13:53:31.266Z,3.80
2022-11-21T13:58:09.895Z,4.53
2022-11-21T14:02:33.577Z,6.07
2022-11-21T14:06:43.761Z,5.43
2022-11-21T14:10:53.525Z,3.73
2022-11-21T14:15:06.404Z,10.57
2022-11-21T14:19:28.079Z,5.40
2022-11-21T14:23:38.550Z,8.97
2022-11-21T14:27:50.553Z,8.73
2022-11-21T14:31:59.286Z,4.43
2022-11-21T14:36:23.045Z,8.33
2022-11-21T14:40:31.683Z,4.70
2022-11-21T14:44:40.230Z,6.67
2022-11-21T14:48:49.375Z,7.10
2022-11-21T14:53:17.335Z,9.63
2022-11-21T14:57:28.915Z,6.77
2022-11-21T15:01:37.559Z,7.13
2022-11-21T15:06:02.175Z,7.60
2022-11-21T15:10:27.296Z,4.70
2022-11-21T15:14:16.291Z,8.57
2022-11-21T15:18:28.640Z,6.00
2022-11-21T15:22:39.777Z,6.60
2022-11-21T15:26:48.478Z,8.83
2022-11-21T15:31:21.992Z,10.13
2022-11-21T15:35:51.305Z,7.93
2022-11-21T15:40:00.126Z,10.70
2022-11-21T15:44:11.787Z,8.03
2022-11-21T15:48:40.640Z,6.43
2022-11-21T15:52:50.933Z,7.20
2022-11-21T15:56:59.468Z,7.87
2022-11-21T16:01:13.933Z,7.70
2022-11-21T16:05:22.476Z,4.90
2022-11-21T16:09:31.688Z,4.10
2022-11-21T16:13:40.220Z,5.30
2022-11-21T16:17:52.641Z,4.00
2022-11-21T16:22:01.448Z,3.60
2022-11-21T16:26:12.110Z,3.83
2022-11-21T16:30:20.749Z,4.80
2022-11-21T16:34:29.343Z,5.53
2022-11-21T16:38:37.981Z,7.07
2022-11-21T16:42:46.996Z,6.70
2022-11-21T16:46:55.976Z,10.80
2022-11-21T16:51:18.981Z,3.90
2022-11-21T16:55:28.178Z,3.67
2022-11-21T16:59:36.718Z,4.80
2022-11-21T17:03:47.556Z,7.10
2022-11-21T17:07:57.660Z,8.93
2022-11-21T17:12:06.431Z,3.43
2022-11-21T17:16:19.900Z,2.83
2022-11-21T17:20:28.620Z,6.23
2022-11-21T17:24:37.192Z,2.93
2022-11-21T17:28:47.836Z,2.90
2022-11-21T17:32:56.395Z,3.30
2022-11-21T17:37:04.988Z,3.17
2022-11-21T17:41:14.096Z,4.30
2022-11-21T17:45:22.691Z,3.40
2022-11-21T17:49:32.855Z,3.60
2022-11-21T17:53:43.887Z,5.20
2022-11-21T17:57:52.468Z,4.40
2022-11-21T18:02:02.465Z,5.93
2022-11-21T18:06:13.310Z,6.70
2022-11-21T18:10:42.179Z,6.80
2022-11-21T18:14:32.140Z,4.67
2022-11-21T18:18:41.082Z,3.47
2022-11-21T18:22:49.873Z,5.10
2022-11-21T18:26:58.511Z,4.60
2022-11-21T18:31:10.452Z,5.53
2022-11-21T18:35:38.388Z,4.30
2022-11-21T18:39:47.018Z,7.80
2022-11-21T18:44:20.277Z,6.37
2022-11-21T18:48:27.697Z,11.30
2022-11-21T18:52:38.924Z,4.07
2022-11-21T18:57:06.515Z,4.83
2022-11-21T19:01:17.733Z,3.80
2022-11-21T19:05:26.313Z,4.03
2022-11-21T19:09:54.901Z,10.60
2022-11-21T19:14:03.631Z,9.67
2022-11-21T19:18:13.057Z,4.63
2022-11-21T19:22:23.129Z,4.80
2022-11-21T19:26:32.692Z,6.17
2022-11-21T19:30:41.676Z,4.60
2022-11-21T19:34:50.207Z,6.60
2022-11-21T19:38:58.885Z,5.20
2022-11-21T19:43:07.414Z,5.13
2022-11-21T19:47:15.982Z,4.67
2022-11-21T19:51:27.228Z,4.90
2022-11-21T19:55:36.701Z,3.97
2022-11-21T19:59:46.975Z,9.13
2022-11-21T20:03:58.343Z,6.50
2022-11-21T20:08:15.279Z,3.63
2022-11-21T20:12:17.384Z,7.50
2022-11-21T20:16:28.485Z,5.27
2022-11-21T20:20:37.067Z,7.07
2022-11-21T20:24:51.442Z,6.67
2022-11-21T20:28:56.951Z,6.53
2022-11-21T20:33:10.986Z,4.83
2022-11-21T20:37:15.969Z,4.67
2022-11-21T20:41:27.544Z,8.10
2022-11-21T20:46:08.043Z,6.77
2022-11-21T20:49:46.464Z,9.83
2022-11-21T20:54:01.549Z,4.20
2022-11-21T20:58:05.665Z,8.70
2022-11-21T21:02:14.804Z,5.17
2022-11-21T21:06:26.862Z,4.87
2022-11-21T21:10:58.317Z,7.40
2022-11-21T21:14:45.999Z,3.97
2022-11-21T21:18:56.208Z,7.80
2022-11-21T21:23:04.810Z,7.40
2022-11-21T21:27:13.335Z,6.83
2022-11-21T21:31:23.065Z,7.90
2022-11-21T21:35:31.720Z,10.13
2022-11-21T21:39:40.452Z,3.60
2022-11-21T21:43:53.382Z,5.37
2022-11-21T21:48:01.908Z,10.70
2022-11-21T21:52:11.456Z,8.97
2022-11-21T21:56:21.452Z,8.33
2022-11-21T22:00:30.047Z,5.00
2022-11-21T22:04:38.674Z,9.43
2022-11-21T22:08:48.670Z,6.13
2022-11-21T22:12:57.245Z,6.70
2022-11-21T22:17:05.802Z,2.90
2022-11-21T22:21:19.684Z,7.60
2022-11-21T22:25:47.625Z,5.43
2022-11-21T22:29:56.264Z,5.43
2022-11-21T22:34:05.085Z,6.10
2022-11-21T22:38:14.228Z,8.13
2022-11-21T22:42:22.854Z,5.20
2022-11-21T22:46:33.542Z,11.60
2022-11-21T22:50:45.539Z,17.57
2022-11-21T22:54:54.123Z,3.97
2022-11-21T22:59:02.798Z,5.47
2022-11-21T23:03:11.371Z,4.37
2022-11-21T23:07:19.983Z,10.47
2022-11-21T23:11:36.181Z,6.97
2022-11-21T23:16:01.727Z,5.57
2022-11-21T23:20:11.476Z,7.03
2022-11-21T23:24:20.069Z,5.50
2022-11-21T23:28:28.899Z,4.60
2022-11-21T23:32:37.426Z,5.47
2022-11-21T23:36:46.054Z,4.50
2022-11-21T23:40:54.774Z,5.07
2022-11-21T23:45:22.752Z,4.60
2022-11-21T23:49:31.576Z,4.63
2022-11-21T23:53:40.176Z,4.60
2022-11-21T23:57:49.420Z,7.03
